Time;durP1;ratioP1;P1;durP2;ratioP2;P2;SDS_P1;SDS_P2;PMS_P1;PMS_P2;Temp;Humidity;BMP_temperature;BMP_pressure;BME280_temperature;BME280_humidity;BME280_pressure;Samples;Min_cycle;Max_cycle;Signal;HPM_P1;HPM_P2
2022/10/01 00:01:43;;;;;;;3.85;2.63;;;;;;;;;;7391361;19;20010;-75
2022/10/01 00:04:09;;;;;;;8.40;3.33;;;;;;;;;;7392490;19;20010;-75
2022/10/01 00:06:34;;;;;;;6.65;2.72;;;;;;;;;;7395230;19;20010;-75
2022/10/01 00:09:00;;;;;;;5.50;3.38;;;;;;;;;;7392737;19;20038;-76
2022/10/01 00:11:25;;;;;;;5.10;3.30;;;;;;;;;;7390772;19;20015;-75
2022/10/01 00:13:52;;;;;;;5.40;4.00;;;;;;;;;;7395840;19;20021;-75
2022/10/01 00:16:19;;;;;;;5.18;3.80;;;;;;;;;;7388929;19;20003;-75
2022/10/01 00:18:46;;;;;;;6.38;4.85;;;;;;;;;;7394649;19;20657;-75
2022/10/01 00:21:14;;;;;;;8.32;5.13;;;;;;;;;;7393252;19;20006;-75
2022/10/01 00:23:39;;;;;;;7.63;4.95;;;;;;;;;;7394797;19;20479;-75
2022/10/01 00:26:20;;;;;;;8.70;5.22;;;;;;;;;;7395732;19;20007;-75
2022/10/01 00:28:47;;;;;;;8.63;4.68;;;;;;;;;;7398130;19;20019;-76
2022/10/01 00:31:14;;;;;;;5.72;4.03;;;;;;;;;;7397519;19;20066;-75
2022/10/01 00:33:40;;;;;;;5.63;3.97;;;;;;;;;;7394623;19;20345;-75
2022/10/01 00:36:06;;;;;;;3.70;2.80;;;;;;;;;;7393988;19;20005;-75
2022/10/01 00:38:32;;;;;;;4.43;3.35;;;;;;;;;;7391768;19;20018;-75
2022/10/01 00:40:58;;;;;;;4.10;3.25;;;;;;;;;;7395630;19;20021;-76
2022/10/01 00:43:26;;;;;;;4.90;3.53;;;;;;;;;;7395877;19;20010;-75
2022/10/01 00:45:56;;;;;;;4.35;2.85;;;;;;;;;;7396011;19;20333;-75
2022/10/01 00:48:22;;;;;;;9.35;4.55;;;;;;;;;;7394292;19;20035;-75
2022/10/01 00:50:48;;;;;;;5.15;3.92;;;;;;;;;;7396808;19;20121;-75
2022/10/01 00:53:16;;;;;;;8.15;5.15;;;;;;;;;;7394233;19;20007;-75
2022/10/01 00:55:47;;;;;;;7.85;5.25;;;;;;;;;;7390403;19;20015;-76
2022/10/01 00:58:14;;;;;;;9.52;5.20;;;;;;;;;;7394342;19;20007;-75
2022/10/01 01:00:41;;;;;;;7.57;4.97;;;;;;;;;;7391932;19;20006;-75
2022/10/01 01:03:08;;;;;;;6.97;4.40;;;;;;;;;;7391471;19;20006;-75
2022/10/01 01:05:33;;;;;;;7.50;4.43;;;;;;;;;;7394134;19;20040;-75
2022/10/01 01:08:01;;;;;;;7.72;5.15;;;;;;;;;;7394144;19;20007;-75
2022/10/01 01:10:36;;;;;;;9.35;5.25;;;;;;;;;;7391829;19;20465;-75
2022/10/01 01:13:21;;;;;;;7.72;5.55;;;;;;;;;;7392133;19;20014;-75
2022/10/01 01:16:02;;;;;;;6.33;4.73;;;;;;;;;;7390214;19;20498;-76
2022/10/01 01:18:35;;;;;;;5.00;3.97;;;;;;;;;;7392124;19;20025;-76
2022/10/01 01:21:15;;;;;;;7.60;5.28;;;;;;;;;;7395401;19;20009;-75
2022/10/01 01:23:53;;;;;;;8.30;5.63;;;;;;;;;;7393034;19;20764;-75
2022/10/01 01:26:24;;;;;;;6.53;4.10;;;;;;;;;;7390383;19;19998;-75
2022/10/01 01:28:56;;;;;;;7.63;5.15;;;;;;;;;;7391082;19;20011;-75
2022/10/01 01:31:29;;;;;;;9.88;5.60;;;;;;;;;;7391990;19;20017;-75
2022/10/01 01:33:56;;;;;;;6.40;4.50;;;;;;;;;;7395177;19;20006;-75
2022/10/01 01:36:26;;;;;;;9.00;4.78;;;;;;;;;;7391570;19;20014;-75
2022/10/01 01:38:56;;;;;;;6.43;4.68;;;;;;;;;;7394715;19;20015;-75
2022/10/01 01:41:25;;;;;;;8.88;5.82;;;;;;;;;;7392964;19;20007;-76
2022/10/01 01:43:55;;;;;;;7.80;4.97;;;;;;;;;;7391949;19;20369;-75
2022/10/01 01:46:30;;;;;;;5.80;4.60;;;;;;;;;;7390825;19;20114;-75
2022/10/01 01:48:58;;;;;;;7.40;5.10;;;;;;;;;;7394668;19;20028;-75
2022/10/01 01:51:26;;;;;;;7.50;4.80;;;;;;;;;;7393834;19;20016;-75
2022/10/01 01:53:52;;;;;;;7.05;4.93;;;;;;;;;;7394032;19;20006;-75
2022/10/01 01:56:18;;;;;;;7.40;4.82;;;;;;;;;;7391439;19;19998;-75
2022/10/01 01:58:44;;;;;;;7.50;4.55;;;;;;;;;;7390743;19;19998;-75
2022/10/01 02:01:31;;;;;;;9.30;5.28;;;;;;;;;;7391959;19;20006;-75
2022/10/01 02:03:57;;;;;;;7.57;5.07;;;;;;;;;;7390964;19;20014;-75
2022/10/01 02:06:47;;;;;;;9.32;5.82;;;;;;;;;;7390886;19;20013;-76
2022/10/01 02:09:29;;;;;;;9.40;5.80;;;;;;;;;;7394908;19;19998;-75
2022/10/01 02:12:30;;;;;;;11.15;5.72;;;;;;;;;;7391422;19;20337;-75
2022/10/01 02:15:13;;;;;;;7.22;4.03;;;;;;;;;;7391950;19;20372;-75
2022/10/01 02:18:06;;;;;;;6.70;3.92;;;;;;;;;;7390320;19;20020;-75
2022/10/01 02:20:38;;;;;;;8.18;4.75;;;;;;;;;;7390388;19;20002;-76
2022/10/01 02:23:22;;;;;;;8.93;5.90;;;;;;;;;;7393364;19;20010;-75
2022/10/01 02:25:56;;;;;;;8.05;5.03;;;;;;;;;;7390878;19;20478;-75
2022/10/01 02:28:23;;;;;;;7.57;4.75;;;;;;;;;;7393195;19;20045;-75
2022/10/01 02:30:52;;;;;;;5.65;4.20;;;;;;;;;;7391176;19;20010;-76
2022/10/01 02:33:23;;;;;;;7.70;4.68;;;;;;;;;;7393270;19;20104;-76
2022/10/01 02:35:50;;;;;;;9.30;5.65;;;;;;;;;;7391711;19;20011;-76
2022/10/01 02:38:18;;;;;;;6.80;4.80;;;;;;;;;;7390398;19;20327;-75
2022/10/01 02:40:46;;;;;;;9.35;4.53;;;;;;;;;;7400481;19;19999;-75
2022/10/01 02:43:30;;;;;;;5.38;3.60;;;;;;;;;;7399610;19;20082;-75
2022/10/01 02:46:01;;;;;;;7.55;4.68;;;;;;;;;;7399673;19;20011;-76
2022/10/01 02:48:27;;;;;;;5.47;3.30;;;;;;;;;;7398389;19;20002;-75
2022/10/01 02:51:00;;;;;;;7.18;4.10;;;;;;;;;;7399789;19;20037;-76
2022/10/01 02:53:43;;;;;;;5.45;3.75;;;;;;;;;;7401409;19;20301;-75
2022/10/01 02:56:10;;;;;;;4.85;2.92;;;;;;;;;;7394647;19;20106;-75
2022/10/01 02:58:35;;;;;;;7.30;4.00;;;;;;;;;;7398140;19;20801;-75
2022/10/01 03:01:01;;;;;;;5.13;3.38;;;;;;;;;;7400580;19;19999;-75
2022/10/01 03:03:26;;;;;;;9.25;4.57;;;;;;;;;;7397390;19;20405;-75
2022/10/01 03:05:52;;;;;;;6.22;4.10;;;;;;;;;;7392913;19;20022;-75
2022/10/01 03:08:18;;;;;;;6.95;4.00;;;;;;;;;;7397802;19;20015;-76
2022/10/01 03:10:43;;;;;;;8.60;4.38;;;;;;;;;;7400986;19;20062;-76
2022/10/01 03:13:09;;;;;;;6.15;3.92;;;;;;;;;;7397938;19;20579;-75
2022/10/01 03:15:34;;;;;;;7.15;4.03;;;;;;;;;;7394398;19;20018;-75
2022/10/01 03:17:59;;;;;;;5.65;3.63;;;;;;;;;;7396398;19;20010;-76
2022/10/01 03:20:25;;;;;;;4.43;3.25;;;;;;;;;;7395923;19;20388;-75
2022/10/01 03:22:51;;;;;;;5.07;3.47;;;;;;;;;;7399803;19;20006;-75
2022/10/01 03:25:16;;;;;;;6.82;4.07;;;;;;;;;;7394909;19;20006;-75
2022/10/01 03:27:42;;;;;;;7.30;4.30;;;;;;;;;;7400202;19;20001;-76
2022/10/01 03:30:07;;;;;;;6.03;3.85;;;;;;;;;;7394773;19;20086;-76
2022/10/01 03:32:33;;;;;;;6.00;4.35;;;;;;;;;;7398162;19;20007;-75
2022/10/01 03:34:58;;;;;;;6.18;4.15;;;;;;;;;;7397341;19;20010;-75
2022/10/01 03:37:24;;;;;;;7.43;4.40;;;;;;;;;;7395987;19;20087;-75
2022/10/01 03:39:49;;;;;;;5.40;4.03;;;;;;;;;;7398047;19;20684;-75
2022/10/01 03:42:15;;;;;;;7.25;4.63;;;;;;;;;;7396654;19;20007;-75
2022/10/01 03:44:41;;;;;;;5.80;4.22;;;;;;;;;;7399125;19;20013;-75
2022/10/01 03:47:07;;;;;;;6.07;4.15;;;;;;;;;;7396618;19;20542;-75
2022/10/01 03:49:33;;;;;;;9.35;4.97;;;;;;;;;;7397670;19;20002;-75
2022/10/01 03:51:58;;;;;;;6.38;4.30;;;;;;;;;;7398455;19;19991;-76
2022/10/01 03:54:25;;;;;;;6.57;4.30;;;;;;;;;;7394732;19;20104;-75
2022/10/01 03:56:51;;;;;;;8.80;4.63;;;;;;;;;;7393843;19;20013;-75
2022/10/01 03:59:16;;;;;;;5.07;3.72;;;;;;;;;;7396632;19;20011;-75
2022/10/01 04:01:41;;;;;;;5.55;3.60;;;;;;;;;;7394799;19;20356;-75
2022/10/01 04:04:08;;;;;;;5.22;3.85;;;;;;;;;;7394568;19;20003;-75
2022/10/01 04:06:33;;;;;;;5.55;3.88;;;;;;;;;;7394787;19;20010;-75
2022/10/01 04:08:58;;;;;;;6.63;3.88;;;;;;;;;;7398571;19;20664;-76
2022/10/01 04:11:24;;;;;;;4.43;3.50;;;;;;;;;;7393424;19;20066;-75
2022/10/01 04:13:50;;;;;;;6.32;4.07;;;;;;;;;;7396745;19;20798;-75
2022/10/01 04:16:15;;;;;;;5.88;3.88;;;;;;;;;;7393659;19;20026;-75
2022/10/01 04:18:41;;;;;;;7.95;3.83;;;;;;;;;;7394618;19;20062;-75
2022/10/01 04:21:06;;;;;;;5.57;4.05;;;;;;;;;;7398732;19;20010;-75
2022/10/01 04:23:32;;;;;;;3.90;3.05;;;;;;;;;;7394447;19;20436;-75
2022/10/01 04:25:59;;;;;;;5.38;3.35;;;;;;;;;;7395920;19;20002;-75
2022/10/01 04:28:25;;;;;;;6.28;4.57;;;;;;;;;;7394257;19;20118;-76
2022/10/01 04:31:23;;;;;;;4.95;3.63;;;;;;;;;;7393136;19;20029;-75
2022/10/01 04:33:35;;;;;;;4.72;3.85;;;;;;;;;;7395776;19;20486;-75
2022/10/01 04:36:01;;;;;;;5.78;4.18;;;;;;;;;;7394637;19;20081;-75
2022/10/01 04:38:26;;;;;;;5.10;3.55;;;;;;;;;;7394635;19;20448;-75
2022/10/01 04:40:51;;;;;;;4.03;3.00;;;;;;;;;;7392739;19;20003;-75
2022/10/01 04:43:16;;;;;;;4.28;3.40;;;;;;;;;;7393520;19;19999;-76
2022/10/01 04:45:42;;;;;;;7.38;4.13;;;;;;;;;;7393448;19;20018;-75
2022/10/01 04:48:07;;;;;;;5.97;3.65;;;;;;;;;;7396487;19;20010;-75
2022/10/01 04:50:32;;;;;;;8.05;4.10;;;;;;;;;;7396130;19;20460;-75
2022/10/01 04:52:58;;;;;;;4.65;3.42;;;;;;;;;;7394990;19;20390;-75
2022/10/01 04:55:24;;;;;;;5.88;3.83;;;;;;;;;;7392472;19;20433;-75
2022/10/01 04:57:49;;;;;;;4.65;3.70;;;;;;;;;;7392012;19;19997;-75
2022/10/01 05:00:17;;;;;;;4.53;3.33;;;;;;;;;;7395122;19;20018;-75
2022/10/01 05:02:48;;;;;;;4.20;2.83;;;;;;;;;;7393673;19;20003;-75
2022/10/01 05:05:14;;;;;;;4.82;3.22;;;;;;;;;;7392501;19;20015;-75
2022/10/01 05:07:39;;;;;;;4.97;3.17;;;;;;;;;;7393475;19;20364;-74
2022/10/01 05:10:07;;;;;;;3.78;2.65;;;;;;;;;;7391100;19;20035;-75
2022/10/01 05:12:32;;;;;;;3.35;2.22;;;;;;;;;;7394155;19;20003;-76
2022/10/01 05:14:58;;;;;;;3.13;2.58;;;;;;;;;;7393530;19;20025;-75
2022/10/01 05:17:23;;;;;;;5.32;3.45;;;;;;;;;;7392502;19;20002;-75
2022/10/01 05:19:49;;;;;;;4.85;3.00;;;;;;;;;;7391868;19;20348;-75
2022/10/01 05:22:15;;;;;;;4.35;2.88;;;;;;;;;;7391573;19;21004;-75
2022/10/01 05:24:42;;;;;;;4.45;2.60;;;;;;;;;;7392343;19;20017;-75
2022/10/01 05:27:09;;;;;;;4.78;3.05;;;;;;;;;;7393066;19;20067;-75
2022/10/01 05:29:34;;;;;;;4.63;2.97;;;;;;;;;;7396182;19;20017;-75
2022/10/01 05:32:00;;;;;;;5.28;3.20;;;;;;;;;;7394951;19;20022;-75
2022/10/01 05:34:25;;;;;;;5.43;3.13;;;;;;;;;;7392316;19;20070;-75
2022/10/01 05:36:50;;;;;;;4.70;3.10;;;;;;;;;;7391310;19;20011;-75
2022/10/01 05:39:15;;;;;;;4.90;3.58;;;;;;;;;;7392346;19;20015;-75
2022/10/01 05:41:41;;;;;;;4.38;2.88;;;;;;;;;;7395119;19;19999;-75
2022/10/01 05:44:06;;;;;;;4.25;3.05;;;;;;;;;;7392531;19;20018;-76
2022/10/01 05:46:32;;;;;;;4.93;3.35;;;;;;;;;;7393372;19;20015;-76
2022/10/01 05:48:58;;;;;;;5.47;3.38;;;;;;;;;;7392583;19;20504;-75
2022/10/01 05:51:24;;;;;;;4.60;2.97;;;;;;;;;;7391306;19;20587;-75
2022/10/01 05:53:52;;;;;;;5.63;3.65;;;;;;;;;;7389333;19;20014;-76
2022/10/01 05:56:17;;;;;;;5.32;3.13;;;;;;;;;;7392369;19;20002;-75
2022/10/01 05:58:45;;;;;;;6.57;3.78;;;;;;;;;;7391697;19;20003;-75
2022/10/01 06:01:10;;;;;;;4.88;3.22;;;;;;;;;;7391467;19;20046;-74
2022/10/01 06:03:37;;;;;;;5.03;3.55;;;;;;;;;;7387473;19;20006;-75
2022/10/01 06:06:04;;;;;;;5.05;3.50;;;;;;;;;;7392959;19;20370;-75
2022/10/01 06:08:30;;;;;;;4.70;3.35;;;;;;;;;;7394128;19;20002;-75
2022/10/01 06:11:00;;;;;;;6.57;3.78;;;;;;;;;;7389287;19;20023;-75
2022/10/01 06:13:26;;;;;;;5.10;3.67;;;;;;;;;;7394612;19;20007;-75
2022/10/01 06:15:52;;;;;;;5.85;3.85;;;;;;;;;;7395771;19;20006;-75
2022/10/01 06:18:17;;;;;;;5.57;3.50;;;;;;;;;;7398327;19;20017;-76
2022/10/01 06:20:42;;;;;;;6.20;3.40;;;;;;;;;;7401552;19;20015;-75
2022/10/01 06:23:11;;;;;;;4.38;3.45;;;;;;;;;;7397950;19;19990;-75
2022/10/01 06:25:37;;;;;;;5.15;3.60;;;;;;;;;;7399354;19;20008;-75
2022/10/01 06:28:04;;;;;;;4.45;3.20;;;;;;;;;;7399581;19;20017;-76
2022/10/01 06:30:31;;;;;;;7.82;4.00;;;;;;;;;;7400678;19;20006;-75
2022/10/01 06:33:25;;;;;;;5.50;3.55;;;;;;;;;;7398485;19;20007;-76
2022/10/01 06:35:51;;;;;;;3.95;3.00;;;;;;;;;;7393374;19;20006;-75
2022/10/01 06:38:19;;;;;;;4.03;2.90;;;;;;;;;;7396841;19;20003;-76
2022/10/01 06:40:51;;;;;;;5.20;3.78;;;;;;;;;;7397199;19;20047;-75
2022/10/01 06:43:16;;;;;;;5.05;3.40;;;;;;;;;;7397639;19;20062;-75
2022/10/01 06:45:42;;;;;;;5.85;4.03;;;;;;;;;;7393803;19;19994;-75
2022/10/01 06:48:12;;;;;;;4.20;3.20;;;;;;;;;;7401644;19;20106;-75
2022/10/01 06:50:38;;;;;;;5.40;4.05;;;;;;;;;;7397611;19;20014;-76
2022/10/01 06:53:04;;;;;;;5.60;3.53;;;;;;;;;;7401369;19;20073;-75
2022/10/01 06:55:31;;;;;;;4.82;3.20;;;;;;;;;;7395015;19;20014;-75
2022/10/01 06:58:08;;;;;;;4.47;3.50;;;;;;;;;;7396677;19;20010;-75
2022/10/01 07:00:35;;;;;;;3.95;3.28;;;;;;;;;;7399239;19;20014;-75
2022/10/01 07:03:03;;;;;;;5.03;3.42;;;;;;;;;;7401453;19;20003;-75
2022/10/01 07:05:29;;;;;;;4.10;3.03;;;;;;;;;;7395635;19;20357;-75
2022/10/01 07:07:54;;;;;;;4.20;3.55;;;;;;;;;;7398932;19;19999;-75
2022/10/01 07:10:20;;;;;;;3.90;2.83;;;;;;;;;;7397478;19;20039;-75
2022/10/01 07:12:50;;;;;;;4.93;3.47;;;;;;;;;;7398030;19;20086;-75
2022/10/01 07:15:17;;;;;;;4.70;3.33;;;;;;;;;;7396388;19;20010;-75
2022/10/01 07:17:47;;;;;;;4.50;3.15;;;;;;;;;;7398437;19;20025;-75
2022/10/01 07:20:13;;;;;;;4.15;3.28;;;;;;;;;;7393360;19;20002;-75
2022/10/01 07:22:39;;;;;;;4.90;2.90;;;;;;;;;;7391748;19;20007;-76
2022/10/01 07:25:05;;;;;;;4.50;3.60;;;;;;;;;;7389610;19;20524;-75
2022/10/01 07:27:30;;;;;;;4.18;3.28;;;;;;;;;;7390965;19;20048;-75
2022/10/01 07:29:57;;;;;;;4.40;3.28;;;;;;;;;;7395541;19;20027;-77
2022/10/01 07:32:23;;;;;;;4.90;3.45;;;;;;;;;;7399494;19;20417;-76
2022/10/01 07:34:49;;;;;;;3.90;3.10;;;;;;;;;;7400334;19;20014;-77
2022/10/01 07:37:14;;;;;;;4.00;3.00;;;;;;;;;;7398732;19;20041;-75
2022/10/01 07:39:40;;;;;;;4.25;2.80;;;;;;;;;;7392573;19;20014;-75
2022/10/01 07:42:05;;;;;;;3.75;2.97;;;;;;;;;;7398537;19;20487;-75
2022/10/01 07:44:30;;;;;;;3.50;2.63;;;;;;;;;;7398760;19;20011;-75
2022/10/01 07:46:56;;;;;;;3.15;2.22;;;;;;;;;;7397237;19;20006;-76
2022/10/01 07:49:23;;;;;;;5.00;2.58;;;;;;;;;;7399516;19;20423;-76
2022/10/01 07:51:49;;;;;;;20.90;3.17;;;;;;;;;;7398992;19;20085;-78
2022/10/01 07:54:15;;;;;;;2.17;1.92;;;;;;;;;;7396638;19;20014;-80
2022/10/01 07:56:41;;;;;;;3.72;2.50;;;;;;;;;;7395677;19;20627;-80
2022/10/01 07:59:22;;;;;;;3.65;2.70;;;;;;;;;;7394075;19;20027;-81
2022/10/01 08:01:50;;;;;;;3.47;2.63;;;;;;;;;;7401459;19;20002;-78
2022/10/01 08:07:14;;;;;;;3.30;2.10;;;;;;;;;;7393347;19;20439;-79
2022/10/01 08:09:39;;;;;;;7.20;2.45;;;;;;;;;;7395618;19;20022;-79
2022/10/01 08:12:08;;;;;;;4.25;2.95;;;;;;;;;;7393370;19;20003;-79
2022/10/01 08:14:48;;;;;;;2.88;2.22;;;;;;;;;;7399156;19;20015;-79
2022/10/01 08:18:07;;;;;;;2.97;2.40;;;;;;;;;;7392594;19;20020;-80
2022/10/01 08:21:00;;;;;;;5.18;2.17;;;;;;;;;;7399053;19;20014;-80
2022/10/01 08:23:56;;;;;;;2.42;1.95;;;;;;;;;;7396664;19;20018;-82
2022/10/01 08:26:44;;;;;;;4.03;2.15;;;;;;;;;;7393141;19;20014;-82
2022/10/01 08:30:11;;;;;;;58.58;35.08;;;;;;;;;;7395683;19;20077;-81
2022/10/01 08:32:37;;;;;;;11.73;6.68;;;;;;;;;;7392483;19;20006;-77
2022/10/01 08:35:03;;;;;;;5.38;3.38;;;;;;;;;;7389494;19;20120;-78
2022/10/01 08:37:33;;;;;;;4.00;2.55;;;;;;;;;;7391896;19;20404;-80
2022/10/01 08:43:36;;;;;;;3.13;1.90;;;;;;;;;;7398663;19;20014;-81
2022/10/01 08:46:21;;;;;;;2.85;1.90;;;;;;;;;;7396798;19;20006;-81
2022/10/01 08:49:43;;;;;;;1.83;1.52;;;;;;;;;;7398141;19;20023;-80
2022/10/01 08:52:32;;;;;;;2.17;1.40;;;;;;;;;;7396062;19;20010;-81
2022/10/01 09:02:18;;;;;;;2.42;1.42;;;;;;;;;;7396627;19;20016;-81
2022/10/01 09:04:44;;;;;;;1.65;1.20;;;;;;;;;;7391686;19;20495;-81
2022/10/01 09:08:14;;;;;;;3.22;1.85;;;;;;;;;;7390637;19;20460;-81
2022/10/01 09:11:04;;;;;;;1.38;1.25;;;;;;;;;;7392429;19;20024;-81
2022/10/01 09:13:50;;;;;;;3.70;1.30;;;;;;;;;;7393231;19;20002;-81
2022/10/01 09:16:46;;;;;;;;;;;;;;;;;;7395289;19;20011;-81
2022/10/01 09:19:59;;;;;;;2.65;1.27;;;;;;;;;;7394281;19;19927;-78
2022/10/01 09:22:40;;;;;;;1.23;1.10;;;;;;;;;;7390208;19;20019;-78
2022/10/01 09:25:08;;;;;;;1.95;1.10;;;;;;;;;;7395183;19;20007;-79
2022/10/01 09:27:37;;;;;;;1.02;0.90;;;;;;;;;;7393504;19;20011;-79
2022/10/01 09:30:19;;;;;;;1.73;1.00;;;;;;;;;;7394944;19;20039;-78
2022/10/01 09:32:52;;;;;;;1.95;1.10;;;;;;;;;;7395795;19;20009;-79
2022/10/01 09:35:47;;;;;;;2.95;1.02;;;;;;;;;;7393063;19;20718;-78
2022/10/01 09:38:26;;;;;;;1.77;1.10;;;;;;;;;;7395423;19;20011;-80
2022/10/01 09:40:53;;;;;;;1.30;0.90;;;;;;;;;;7395977;19;20002;-80
2022/10/01 09:43:22;;;;;;;0.85;0.85;;;;;;;;;;7394374;19;20015;-80
2022/10/01 09:45:48;;;;;;;2.03;0.85;;;;;;;;;;7395818;19;20021;-80
2022/10/01 09:48:39;;;;;;;1.23;0.90;;;;;;;;;;7399198;19;20007;-79
2022/10/01 09:51:21;;;;;;;1.33;0.90;;;;;;;;;;7403817;19;19996;-78
2022/10/01 09:54:30;;;;;;;0.77;0.60;;;;;;;;;;7404402;19;20011;-83
2022/10/01 09:57:07;;;;;;;1.95;0.52;;;;;;;;;;7399612;19;20463;-82
2022/10/01 10:00:23;;;;;;;0.95;0.70;;;;;;;;;;7405283;19;20002;-83
2022/10/01 10:06:22;;;;;;;5.05;0.73;;;;;;;;;;7404386;19;20344;-83
2022/10/01 10:15:58;;;;;;;1.00;0.90;;;;;;;;;;7397732;19;20001;-83
2022/10/01 11:58:53;;;;;;;1.15;0.93;;;;;;;;;;7401309;19;20443;-87
2022/10/01 12:02:14;;;;;;;2.83;1.35;;;;;;;;;;7399589;19;20330;-85
2022/10/01 12:05:49;;;;;;;1.20;1.10;;;;;;;;;;7394890;19;20020;-85
2022/10/01 12:09:14;;;;;;;1.23;0.88;;;;;;;;;;7397065;19;20033;-85
2022/10/01 12:12:14;;;;;;;1.95;0.80;;;;;;;;;;7392405;19;20559;-84
2022/10/01 13:45:54;;;;;;;0.50;0.50;;;;;;;;;;7399016;19;19997;-82
2022/10/01 13:48:48;;;;;;;1.27;0.82;;;;;;;;;;7397060;19;20420;-83
2022/10/01 13:52:09;;;;;;;0.65;0.55;;;;;;;;;;7394782;19;20499;-83
2022/10/01 13:54:46;;;;;;;0.60;0.50;;;;;;;;;;7393213;19;20033;-82
2022/10/01 13:57:33;;;;;;;1.00;0.80;;;;;;;;;;7397292;19;20003;-83
2022/10/01 14:00:12;;;;;;;0.68;0.43;;;;;;;;;;7393165;19;20003;-83
2022/10/01 14:02:43;;;;;;;0.80;0.47;;;;;;;;;;7394331;19;20313;-83
2022/10/01 14:05:36;;;;;;;0.57;0.57;;;;;;;;;;7393849;19;20316;-83
2022/10/01 14:08:35;;;;;;;2.63;0.43;;;;;;;;;;7395275;19;20018;-82
2022/10/01 14:17:25;;;;;;;0.50;0.50;;;;;;;;;;7393114;19;20316;-82
2022/10/01 14:19:51;;;;;;;0.60;0.50;;;;;;;;;;7392706;19;20352;-81
2022/10/01 14:22:45;;;;;;;1.15;0.80;;;;;;;;;;7392511;19;19999;-82
2022/10/01 14:25:25;;;;;;;0.50;0.50;;;;;;;;;;7393651;19;20025;-82
2022/10/01 14:28:05;;;;;;;0.85;0.70;;;;;;;;;;7394575;19;20006;-82
2022/10/01 14:30:49;;;;;;;1.30;0.93;;;;;;;;;;7396168;19;20002;-82
2022/10/01 14:33:39;;;;;;;0.82;0.60;;;;;;;;;;7393376;19;20006;-81
2022/10/01 14:36:46;;;;;;;1.35;0.70;;;;;;;;;;7397940;19;20011;-82
2022/10/01 14:39:39;;;;;;;6.82;4.00;;;;;;;;;;7403044;19;20029;-82
2022/10/01 14:42:14;;;;;;;4.57;3.25;;;;;;;;;;7401422;19;20002;-83
2022/10/01 14:44:44;;;;;;;22.52;11.20;;;;;;;;;;7403204;19;20021;-85
2022/10/01 14:47:44;;;;;;;2.17;1.80;;;;;;;;;;7400217;19;20134;-83
2022/10/01 14:50:18;;;;;;;3.00;2.15;;;;;;;;;;7404492;19;20074;-84
2022/10/01 14:56:59;;;;;;;1.23;0.70;;;;;;;;;;7401873;19;20422;-83
2022/10/01 14:59:38;;;;;;;1.17;0.65;;;;;;;;;;7398538;19;20468;-84
2022/10/01 15:06:31;;;;;;;0.98;0.90;;;;;;;;;;7399104;19;20001;-84
2022/10/01 15:09:23;;;;;;;;;;;;;;;;;;7401133;19;20019;-84
2022/10/01 15:15:38;;;;;;;2.47;0.70;;;;;;;;;;7427227;19;20148;-83
2022/10/01 15:18:57;;;;;;;0.90;0.70;;;;;;;;;;7423944;19;19999;-83
2022/10/01 15:21:40;;;;;;;0.98;0.57;;;;;;;;;;7426122;19;20027;-84
2022/10/01 15:24:49;;;;;;;0.65;0.57;;;;;;;;;;7425111;19;20002;-83
2022/10/01 15:27:24;;;;;;;1.63;1.00;;;;;;;;;;7425462;19;20044;-82
2022/10/01 15:37:18;;;;;;;1.38;1.00;;;;;;;;;;7425327;19;20011;-86
2022/10/01 15:39:52;;;;;;;1.10;0.77;;;;;;;;;;7426240;19;20010;-83
2022/10/01 15:42:34;;;;;;;0.88;0.60;;;;;;;;;;7422265;19;20551;-85
2022/10/01 16:06:00;;;;;;;5.82;3.42;;;;;;;;;;7401580;19;19997;-83
2022/10/01 16:09:12;;;;;;;2.97;1.70;;;;;;;;;;7400099;19;20003;-83
2022/10/01 16:12:11;;;;;;;14.32;8.15;;;;;;;;;;7400206;19;20087;-83
2022/10/01 16:18:55;;;;;;;1.50;0.68;;;;;;;;;;7397846;19;20044;-83
2022/10/01 16:22:05;;;;;;;0.68;0.65;;;;;;;;;;7398694;19;20035;-83
2022/10/01 16:28:35;;;;;;;0.95;0.82;;;;;;;;;;7399862;19;20094;-84
2022/10/01 16:32:03;;;;;;;0.45;0.40;;;;;;;;;;7398101;19;20033;-84
2022/10/01 16:38:58;;;;;;;1.05;0.50;;;;;;;;;;7394957;19;20015;-85
2022/10/01 16:45:28;;;;;;;0.90;0.50;;;;;;;;;;7393099;19;20012;-84
2022/10/01 16:49:09;;;;;;;0.52;0.52;;;;;;;;;;7391740;19;20014;-84
2022/10/01 16:56:02;;;;;;;2.17;1.70;;;;;;;;;;7398103;19;20017;-84
2022/10/01 16:58:28;;;;;;;1.13;0.98;;;;;;;;;;7393470;19;20006;-84
2022/10/01 17:11:10;;;;;;;0.32;0.32;;;;;;;;;;7398675;19;20349;-85
2022/10/01 17:14:54;;;;;;;1.00;0.55;;;;;;;;;;7398521;19;20770;-85
2022/10/01 17:25:15;;;;;;;0.45;0.35;;;;;;;;;;7396731;19;20014;-85
2022/10/01 17:38:11;;;;;;;0.35;0.35;;;;;;;;;;7392169;19;20002;-84
2022/10/01 17:41:18;;;;;;;1.67;1.58;;;;;;;;;;7387655;19;20349;-84
2022/10/01 17:44:10;;;;;;;1.38;0.80;;;;;;;;;;7393011;19;20045;-83
2022/10/01 17:50:42;;;;;;;0.73;0.65;;;;;;;;;;7391285;19;20009;-83
2022/10/01 17:53:53;;;;;;;0.38;0.38;;;;;;;;;;7392141;19;20110;-84
2022/10/01 17:56:54;;;;;;;0.50;0.47;;;;;;;;;;7390404;19;20022;-85
2022/10/01 17:59:22;;;;;;;1.08;0.80;;;;;;;;;;7392828;19;20006;-84
2022/10/01 18:01:47;;;;;;;1.45;1.00;;;;;;;;;;7393792;19;20010;-83
2022/10/01 18:04:13;;;;;;;0.95;0.70;;;;;;;;;;7391768;19;19999;-83
2022/10/01 18:06:39;;;;;;;0.60;0.55;;;;;;;;;;7390939;19;20375;-86
2022/10/01 18:09:05;;;;;;;0.52;0.52;;;;;;;;;;7393728;19;20014;-85
2022/10/01 18:11:30;;;;;;;1.38;0.60;;;;;;;;;;7400352;19;20018;-86
2022/10/01 18:13:56;;;;;;;0.95;0.77;;;;;;;;;;7400792;19;20010;-85
2022/10/01 18:16:22;;;;;;;0.50;0.50;;;;;;;;;;7402473;19;20002;-83
2022/10/01 18:18:56;;;;;;;0.40;0.40;;;;;;;;;;7397715;19;20470;-83
2022/10/01 18:21:21;;;;;;;0.30;0.30;;;;;;;;;;7402667;19;20023;-84
2022/10/01 18:23:47;;;;;;;0.60;0.45;;;;;;;;;;7403842;19;19998;-85
2022/10/01 18:26:12;;;;;;;0.30;0.30;;;;;;;;;;7401465;19;20030;-85
2022/10/01 18:28:38;;;;;;;0.43;0.40;;;;;;;;;;7401521;19;20006;-86
2022/10/01 18:31:09;;;;;;;0.28;0.28;;;;;;;;;;7401672;19;20012;-83
2022/10/01 18:33:56;;;;;;;0.80;0.50;;;;;;;;;;7400614;19;20026;-85
2022/10/01 18:36:36;;;;;;;0.68;0.68;;;;;;;;;;7398629;19;20013;-86
2022/10/01 18:39:20;;;;;;;0.47;0.47;;;;;;;;;;7398376;19;20006;-84
2022/10/01 18:41:48;;;;;;;4.03;2.35;;;;;;;;;;7403217;19;20023;-85
2022/10/01 18:44:15;;;;;;;0.40;0.40;;;;;;;;;;7402218;19;20018;-87
2022/10/01 18:46:44;;;;;;;0.65;0.60;;;;;;;;;;7400672;19;20017;-84
2022/10/01 18:49:41;;;;;;;0.43;0.43;;;;;;;;;;7404235;19;20792;-83
2022/10/01 18:52:45;;;;;;;0.40;0.40;;;;;;;;;;7405372;19;20010;-84
2022/10/01 18:55:26;;;;;;;1.13;0.60;;;;;;;;;;7399260;19;19998;-85
2022/10/01 18:57:57;;;;;;;2.55;0.40;;;;;;;;;;7407672;19;19999;-85
2022/10/01 19:00:26;;;;;;;0.38;0.22;;;;;;;;;;7405070;19;20472;-85
2022/10/01 19:03:13;;;;;;;0.30;0.30;;;;;;;;;;7405896;19;20475;-85
2022/10/01 19:06:10;;;;;;;0.32;0.32;;;;;;;;;;7406611;19;20015;-85
2022/10/01 19:09:03;;;;;;;1.20;0.50;;;;;;;;;;7405664;19;20474;-87
2022/10/01 19:11:58;;;;;;;0.50;0.50;;;;;;;;;;7408665;19;20138;-85
2022/10/01 19:14:29;;;;;;;1.03;0.50;;;;;;;;;;7407031;19;20043;-86
2022/10/01 19:17:03;;;;;;;0.45;0.45;;;;;;;;;;7405489;19;20058;-85
2022/10/01 19:19:53;;;;;;;0.30;0.30;;;;;;;;;;7409254;19;19995;-85
2022/10/01 19:22:41;;;;;;;0.63;0.30;;;;;;;;;;7404613;19;20034;-85
2022/10/01 19:25:09;;;;;;;0.63;0.30;;;;;;;;;;7406953;19;20014;-87
2022/10/01 19:28:19;;;;;;;0.28;0.28;;;;;;;;;;7404397;19;20002;-85
2022/10/01 19:31:17;;;;;;;0.80;0.50;;;;;;;;;;7402283;19;20014;-85
2022/10/01 19:34:06;;;;;;;0.32;0.30;;;;;;;;;;7401493;19;20043;-86
2022/10/01 19:36:38;;;;;;;0.45;0.45;;;;;;;;;;7405419;19;20027;-85
2022/10/01 19:39:14;;;;;;;0.60;0.50;;;;;;;;;;7405957;19;20084;-86
2022/10/01 19:42:07;;;;;;;0.50;0.38;;;;;;;;;;7406936;19;20007;-85
2022/10/01 19:44:48;;;;;;;0.55;0.38;;;;;;;;;;7405377;19;19995;-87
2022/10/01 19:47:41;;;;;;;0.52;0.47;;;;;;;;;;7404287;19;19994;-84
2022/10/01 19:50:36;;;;;;;0.40;0.40;;;;;;;;;;7403893;19;20471;-84
2022/10/01 19:53:02;;;;;;;0.70;0.70;;;;;;;;;;7408264;19;20078;-84
2022/10/01 19:55:34;;;;;;;0.63;0.55;;;;;;;;;;7407937;19;20033;-85
2022/10/01 19:58:16;;;;;;;0.77;0.57;;;;;;;;;;7407924;19;20014;-85
2022/10/01 20:00:46;;;;;;;2.08;0.60;;;;;;;;;;7413196;19;20064;-84
2022/10/01 20:03:21;;;;;;;0.30;0.30;;;;;;;;;;7410066;19;20014;-85
2022/10/01 20:05:55;;;;;;;0.40;0.40;;;;;;;;;;7409983;19;19995;-85
2022/10/01 20:08:38;;;;;;;0.35;0.32;;;;;;;;;;7408842;19;20501;-86
2022/10/01 20:11:35;;;;;;;0.63;0.63;;;;;;;;;;7410617;19;20003;-86
2022/10/01 20:17:36;;;;;;;0.30;0.30;;;;;;;;;;7405809;19;20013;-86
2022/10/01 20:20:40;;;;;;;0.30;0.30;;;;;;;;;;7411347;19;20006;-86
2022/10/01 20:23:36;;;;;;;0.38;0.30;;;;;;;;;;7407426;19;19999;-86
2022/10/01 20:26:08;;;;;;;0.30;0.30;;;;;;;;;;7410627;19;20030;-85
2022/10/01 20:28:52;;;;;;;0.80;0.50;;;;;;;;;;7409435;19;20042;-86
2022/10/01 20:32:01;;;;;;;0.22;0.22;;;;;;;;;;7406265;19;20042;-85
2022/10/01 20:34:45;;;;;;;0.70;0.40;;;;;;;;;;7406311;19;20010;-85
2022/10/01 20:37:22;;;;;;;0.28;0.28;;;;;;;;;;7408090;19;20504;-85
2022/10/01 20:39:54;;;;;;;0.75;0.20;;;;;;;;;;7406381;19;20002;-85
2022/10/01 20:42:29;;;;;;;0.35;0.35;;;;;;;;;;7408193;19;20134;-86
2022/10/01 20:44:55;;;;;;;0.22;0.22;;;;;;;;;;7407514;19;20014;-86
2022/10/01 20:47:32;;;;;;;0.30;0.30;;;;;;;;;;7397144;19;20071;-85
2022/10/01 20:50:07;;;;;;;0.30;0.30;;;;;;;;;;7403089;19;20440;-85
2022/10/01 20:52:41;;;;;;;;;;;;;;;;;;7398228;19;20491;-85